createdAt,value
2022-08-03T00:01:22.567Z,22.60
2022-08-03T00:04:09.883Z,22.60
2022-08-03T00:06:56.247Z,22.60
2022-08-03T00:09:42.595Z,22.60
2022-08-03T00:12:30.532Z,22.50
2022-08-03T00:15:17.218Z,22.50
2022-08-03T00:18:03.820Z,22.50
2022-08-03T00:20:50.247Z,22.50
2022-08-03T00:23:51.238Z,22.50
2022-08-03T00:26:39.340Z,22.50
2022-08-03T00:29:27.081Z,22.40
2022-08-03T00:32:13.716Z,22.40
2022-08-03T00:35:00.298Z,22.30
2022-08-03T00:37:53.778Z,22.40
2022-08-03T00:40:40.449Z,22.30
2022-08-03T00:43:27.900Z,22.30
2022-08-03T00:46:20.830Z,22.30
2022-08-03T00:49:09.327Z,22.30
2022-08-03T00:51:56.061Z,22.30
2022-08-03T00:54:42.814Z,22.20
2022-08-03T00:57:31.148Z,22.30
2022-08-03T01:00:20.712Z,22.30
2022-08-03T01:03:12.045Z,22.20
2022-08-03T01:06:05.057Z,22.10
2022-08-03T01:09:00.099Z,22.10
2022-08-03T01:11:59.871Z,22.10
2022-08-03T01:14:55.007Z,22.10
2022-08-03T01:17:48.211Z,22.10
2022-08-03T01:20:39.879Z,22.10
2022-08-03T01:23:38.591Z,22.00
2022-08-03T01:26:53.409Z,22.00
2022-08-03T01:29:58.230Z,22.00
2022-08-03T01:33:03.486Z,21.90
2022-08-03T01:35:55.699Z,21.90
2022-08-03T01:38:45.353Z,21.90
2022-08-03T01:41:37.769Z,21.80
2022-08-03T01:44:29.069Z,21.70
2022-08-03T01:47:22.186Z,21.70
2022-08-03T01:50:11.976Z,21.70
2022-08-03T01:52:59.780Z,21.70
2022-08-03T01:55:49.725Z,21.80
2022-08-03T01:58:37.475Z,21.70
2022-08-03T02:01:26.495Z,21.70
2022-08-03T02:04:35.768Z,21.60
2022-08-03T02:07:22.757Z,21.50
2022-08-03T02:10:12.725Z,21.60
2022-08-03T02:13:02.367Z,21.60
2022-08-03T02:15:49.605Z,21.60
2022-08-03T02:18:39.333Z,21.60
2022-08-03T02:21:56.965Z,21.50
2022-08-03T02:24:35.811Z,21.50
2022-08-03T02:27:24.420Z,21.50
2022-08-03T02:30:13.574Z,21.40
2022-08-03T02:33:01.895Z,21.50
2022-08-03T02:35:50.411Z,21.50
2022-08-03T02:38:42.269Z,21.50
2022-08-03T02:41:33.018Z,21.40
2022-08-03T02:44:25.821Z,21.50
2022-08-03T02:47:15.525Z,21.40
2022-08-03T02:50:03.722Z,21.50
2022-08-03T02:52:52.110Z,21.40
2022-08-03T02:55:43.172Z,21.40
2022-08-03T02:58:33.502Z,21.30
2022-08-03T03:01:21.707Z,21.30
2022-08-03T03:04:09.904Z,21.30
2022-08-03T03:06:59.856Z,21.30
2022-08-03T03:09:49.262Z,21.30
2022-08-03T03:12:39.083Z,21.20
2022-08-03T03:15:27.692Z,21.30
2022-08-03T03:18:18.958Z,21.30
2022-08-03T03:21:10.647Z,21.20
2022-08-03T03:23:57.484Z,21.20
2022-08-03T03:26:44.624Z,21.20
2022-08-03T03:29:39.253Z,21.20
2022-08-03T03:32:27.896Z,21.20
2022-08-03T03:35:15.382Z,21.30
2022-08-03T03:38:02.235Z,21.30
2022-08-03T03:40:49.273Z,21.20
2022-08-03T03:43:35.792Z,21.20
2022-08-03T03:46:23.916Z,21.20
2022-08-03T03:49:11.455Z,21.10
2022-08-03T03:51:58.029Z,21.10
2022-08-03T03:54:45.813Z,21.00
2022-08-03T03:57:32.337Z,21.00
2022-08-03T04:00:20.800Z,21.10
2022-08-03T04:03:08.494Z,21.00
2022-08-03T04:06:12.355Z,21.00
2022-08-03T04:09:24.796Z,21.00
2022-08-03T04:12:11.510Z,20.90
2022-08-03T04:15:00.335Z,21.00
2022-08-03T04:17:48.260Z,20.90
2022-08-03T04:20:38.673Z,20.90
2022-08-03T04:23:28.007Z,21.00
2022-08-03T04:26:20.793Z,21.00
2022-08-03T04:29:07.915Z,21.00
2022-08-03T04:31:56.900Z,21.00
2022-08-03T04:34:43.517Z,21.00
2022-08-03T04:37:37.024Z,21.10
2022-08-03T04:40:29.840Z,21.10
2022-08-03T04:43:19.566Z,21.20
2022-08-03T04:46:07.477Z,21.20
2022-08-03T04:48:54.605Z,21.20
2022-08-03T04:51:42.755Z,21.20
2022-08-03T04:54:30.669Z,21.30
2022-08-03T04:57:22.435Z,21.30
2022-08-03T05:00:11.381Z,21.30
2022-08-03T05:02:57.792Z,21.40
2022-08-03T05:05:50.677Z,21.40
2022-08-03T05:08:46.327Z,21.50
2022-08-03T05:11:38.688Z,21.60
2022-08-03T05:14:28.245Z,21.60
2022-08-03T05:17:14.852Z,21.60
2022-08-03T05:20:02.959Z,21.70
2022-08-03T05:22:49.352Z,21.70
2022-08-03T05:25:35.848Z,21.70
2022-08-03T05:28:24.854Z,21.80
2022-08-03T05:31:12.221Z,21.80
2022-08-03T05:33:58.912Z,21.90
2022-08-03T05:36:45.436Z,21.90
2022-08-03T05:39:31.876Z,22.00
2022-08-03T05:42:18.251Z,22.00
2022-08-03T05:45:14.731Z,22.10
2022-08-03T05:48:01.160Z,22.20
2022-08-03T05:50:47.745Z,22.20
2022-08-03T05:53:35.800Z,22.30
2022-08-03T05:56:24.633Z,22.40
2022-08-03T05:59:35.874Z,22.40
2022-08-03T06:02:18.955Z,22.50
2022-08-03T06:05:06.601Z,22.60
2022-08-03T06:07:53.050Z,22.60
2022-08-03T06:10:39.625Z,22.70
2022-08-03T06:13:26.345Z,22.80
2022-08-03T06:16:12.890Z,22.90
2022-08-03T06:19:01.105Z,22.90
2022-08-03T06:21:47.613Z,23.00
2022-08-03T06:24:34.069Z,23.00
2022-08-03T06:27:21.073Z,23.10
2022-08-03T06:30:23.587Z,23.10
2022-08-03T06:33:10.041Z,23.20
2022-08-03T06:35:57.755Z,23.30
2022-08-03T06:38:44.548Z,23.40
2022-08-03T06:41:31.151Z,23.40
2022-08-03T06:44:24.527Z,23.50
2022-08-03T06:47:10.883Z,23.70
2022-08-03T06:50:14.354Z,23.70
2022-08-03T06:53:06.423Z,23.70
2022-08-03T06:55:55.060Z,23.70
2022-08-03T06:58:41.897Z,23.80
2022-08-03T07:01:28.293Z,23.80
2022-08-03T07:04:15.260Z,23.80
2022-08-03T07:07:01.744Z,23.90
2022-08-03T07:09:57.873Z,23.90
2022-08-03T07:12:55.642Z,24.00
2022-08-03T07:15:55.391Z,24.10
2022-08-03T07:18:42.697Z,24.20
2022-08-03T07:21:29.004Z,24.30
2022-08-03T07:24:15.588Z,24.30
2022-08-03T07:27:03.333Z,24.30
2022-08-03T07:29:50.103Z,24.40
2022-08-03T07:32:36.688Z,24.40
2022-08-03T07:35:37.214Z,24.50
2022-08-03T07:38:23.594Z,24.50
2022-08-03T07:41:09.961Z,24.70
2022-08-03T07:43:57.683Z,24.80
2022-08-03T07:46:44.184Z,24.90
2022-08-03T07:49:31.389Z,25.00
2022-08-03T07:52:35.413Z,25.10
2022-08-03T07:55:24.051Z,25.20
2022-08-03T07:58:12.421Z,25.30
2022-08-03T08:01:00.647Z,25.50
2022-08-03T08:03:52.811Z,25.50
2022-08-03T08:06:40.031Z,25.60
2022-08-03T08:09:26.345Z,25.70
2022-08-03T08:12:16.464Z,25.90
2022-08-03T08:15:03.649Z,25.90
2022-08-03T08:17:53.506Z,25.90
2022-08-03T08:20:40.138Z,26.00
2022-08-03T08:23:42.353Z,26.10
2022-08-03T08:26:30.133Z,26.10
2022-08-03T08:29:16.487Z,26.20
2022-08-03T08:32:02.891Z,26.40
2022-08-03T08:34:50.991Z,26.40
2022-08-03T08:37:37.767Z,26.50
2022-08-03T08:40:24.700Z,26.50
2022-08-03T08:43:11.270Z,26.60
2022-08-03T08:46:00.168Z,26.70
2022-08-03T08:48:49.356Z,26.90
2022-08-03T08:52:00.404Z,26.90
2022-08-03T08:54:47.139Z,27.00
2022-08-03T08:57:44.741Z,27.10
2022-08-03T09:00:31.692Z,27.20
2022-08-03T09:03:29.319Z,27.30
2022-08-03T09:06:17.599Z,27.30
2022-08-03T09:09:07.154Z,27.40
2022-08-03T09:12:01.127Z,27.40
2022-08-03T09:15:14.690Z,27.40
2022-08-03T09:17:59.608Z,27.70
2022-08-03T09:20:46.447Z,27.80
2022-08-03T09:24:01.415Z,27.90
2022-08-03T09:26:54.030Z,28.00
2022-08-03T09:29:40.694Z,28.10
2022-08-03T09:32:27.276Z,28.10
2022-08-03T09:35:14.785Z,28.30
2022-08-03T09:38:15.154Z,28.40
2022-08-03T09:41:01.910Z,28.40
2022-08-03T09:43:54.756Z,28.60
2022-08-03T09:46:51.656Z,28.60
2022-08-03T09:49:38.421Z,28.70
2022-08-03T09:52:39.120Z,28.80
2022-08-03T09:56:33.263Z,28.90
2022-08-03T09:58:47.518Z,28.80
2022-08-03T10:01:37.343Z,29.00
2022-08-03T10:04:25.055Z,29.00
2022-08-03T10:07:12.834Z,29.20
2022-08-03T10:10:28.959Z,29.30
2022-08-03T10:13:07.770Z,29.20
2022-08-03T10:16:21.915Z,29.30
2022-08-03T10:19:02.104Z,29.30
2022-08-03T10:21:51.922Z,29.60
2022-08-03T10:24:40.354Z,29.70
2022-08-03T10:27:32.750Z,29.70
2022-08-03T10:30:19.194Z,29.60
2022-08-03T10:33:51.220Z,29.60
2022-08-03T10:36:31.436Z,29.80
2022-08-03T10:39:22.920Z,30.20
2022-08-03T10:42:14.588Z,30.20
2022-08-03T10:45:07.771Z,30.20
2022-08-03T10:47:56.975Z,30.30
2022-08-03T10:50:44.449Z,30.30
2022-08-03T10:53:40.475Z,30.30
2022-08-03T10:57:04.862Z,30.40
2022-08-03T11:00:04.637Z,30.60
2022-08-03T11:03:09.636Z,30.60
2022-08-03T11:06:17.761Z,30.50
2022-08-03T11:09:18.282Z,30.50
2022-08-03T11:12:30.904Z,30.40
2022-08-03T11:15:34.300Z,30.60
2022-08-03T11:18:21.325Z,30.80
2022-08-03T11:21:13.792Z,30.70
2022-08-03T11:24:04.361Z,30.60
2022-08-03T11:27:18.448Z,30.50
2022-08-03T11:30:08.014Z,30.70
2022-08-03T11:32:59.146Z,30.50
2022-08-03T11:36:00.669Z,30.60
2022-08-03T11:39:16.984Z,30.90
2022-08-03T11:42:45.609Z,31.10
2022-08-03T11:45:32.281Z,31.20
2022-08-03T11:48:18.796Z,31.40
2022-08-03T11:51:06.901Z,31.40
2022-08-03T11:53:54.561Z,31.60
2022-08-03T11:56:48.671Z,31.80
2022-08-03T11:59:38.640Z,31.80
2022-08-03T12:02:25.700Z,31.70
2022-08-03T12:05:12.091Z,31.70
2022-08-03T12:08:03.616Z,32.00
2022-08-03T12:10:52.757Z,32.10
2022-08-03T12:14:26.992Z,31.90
2022-08-03T12:16:50.244Z,31.80
2022-08-03T12:19:43.541Z,32.10
2022-08-03T12:22:33.821Z,32.00
2022-08-03T12:25:38.484Z,32.00
2022-08-03T12:28:36.674Z,32.30
2022-08-03T12:31:24.941Z,32.70
2022-08-03T12:34:13.655Z,32.60
2022-08-03T12:37:01.028Z,32.70
2022-08-03T12:40:02.489Z,32.60
2022-08-03T12:42:51.929Z,32.70
2022-08-03T12:45:38.301Z,32.90
2022-08-03T12:48:24.786Z,32.90
2022-08-03T12:51:16.085Z,33.00
2022-08-03T12:54:03.899Z,33.00
2022-08-03T12:57:01.393Z,33.20
2022-08-03T12:59:53.360Z,33.10
2022-08-03T13:02:40.622Z,33.30
2022-08-03T13:05:33.209Z,33.40
2022-08-03T13:08:21.973Z,33.60
2022-08-03T13:11:23.531Z,33.30
2022-08-03T13:14:30.061Z,33.50
2022-08-03T13:17:17.680Z,33.50
2022-08-03T13:20:04.938Z,33.50
2022-08-03T13:22:52.354Z,34.00
2022-08-03T13:25:40.438Z,33.90
2022-08-03T13:28:42.958Z,33.70
2022-08-03T13:31:29.735Z,33.80
2022-08-03T13:34:19.737Z,34.10
2022-08-03T13:37:10.260Z,34.30
2022-08-03T13:40:00.147Z,34.40
2022-08-03T13:42:50.420Z,34.50
2022-08-03T13:45:36.938Z,34.40
2022-08-03T13:48:37.386Z,34.30
2022-08-03T13:51:24.370Z,34.20
2022-08-03T13:54:10.752Z,34.50
2022-08-03T13:58:01.035Z,34.30
2022-08-03T14:00:06.981Z,34.20
2022-08-03T14:02:55.325Z,34.40
2022-08-03T14:05:45.314Z,34.70
2022-08-03T14:08:31.920Z,34.50
2022-08-03T14:11:19.519Z,34.70
2022-08-03T14:14:06.008Z,34.50
2022-08-03T14:16:53.709Z,34.50
2022-08-03T14:19:53.678Z,34.20
2022-08-03T14:22:40.732Z,34.50
2022-08-03T14:25:27.650Z,34.50
2022-08-03T14:28:14.357Z,34.80
2022-08-03T14:31:00.799Z,34.50
2022-08-03T14:33:48.741Z,34.70
2022-08-03T14:36:35.533Z,34.80
2022-08-03T14:39:22.030Z,34.80
2022-08-03T14:42:09.291Z,33.90
2022-08-03T14:45:00.741Z,34.40
2022-08-03T14:50:28.637Z,33.80
2022-08-03T14:50:59.703Z,34.00
2022-08-03T14:53:46.902Z,34.60
2022-08-03T14:56:33.525Z,34.70
2022-08-03T14:59:19.831Z,34.60
2022-08-03T15:02:10.278Z,34.80
2022-08-03T15:05:02.784Z,34.90
2022-08-03T15:07:50.643Z,35.20
2022-08-03T15:10:44.604Z,35.30
2022-08-03T15:13:32.005Z,34.90
2022-08-03T15:16:18.230Z,34.60
2022-08-03T15:19:04.987Z,34.70
2022-08-03T15:22:11.353Z,34.30
2022-08-03T15:25:01.136Z,34.20
2022-08-03T15:28:02.983Z,34.30
2022-08-03T15:30:53.044Z,34.20
2022-08-03T15:33:39.987Z,34.60
2022-08-03T15:36:26.705Z,34.30
2022-08-03T15:39:13.351Z,34.70
2022-08-03T15:42:01.512Z,34.60
2022-08-03T15:44:48.196Z,34.50
2022-08-03T15:47:34.857Z,34.60
2022-08-03T15:50:21.629Z,34.60
2022-08-03T15:53:07.949Z,34.20
2022-08-03T15:55:54.404Z,34.40
2022-08-03T15:59:09.104Z,34.50
2022-08-03T16:01:49.056Z,34.80
2022-08-03T16:04:35.817Z,34.40
2022-08-03T16:07:58.639Z,34.10
2022-08-03T16:10:49.347Z,34.50
2022-08-03T16:14:11.909Z,34.70
2022-08-03T16:16:45.077Z,34.80
2022-08-03T16:19:33.638Z,35.00
2022-08-03T16:22:22.185Z,35.00
2022-08-03T16:25:16.065Z,35.30
2022-08-03T16:28:07.595Z,35.30
2022-08-03T16:30:55.039Z,35.10
2022-08-03T16:33:42.805Z,35.20
2022-08-03T16:36:34.752Z,35.00
2022-08-03T16:39:21.558Z,34.80
2022-08-03T16:42:08.617Z,35.10
2022-08-03T16:44:55.059Z,35.10
2022-08-03T16:47:41.328Z,35.10
2022-08-03T16:50:29.023Z,35.20
2022-08-03T16:53:16.849Z,35.40
2022-08-03T16:56:09.890Z,35.70
2022-08-03T16:58:57.224Z,35.70
2022-08-03T17:01:45.448Z,35.60
2022-08-03T17:04:35.391Z,35.30
2022-08-03T17:07:29.620Z,35.40
2022-08-03T17:10:17.124Z,34.70
2022-08-03T17:13:21.516Z,34.50
2022-08-03T17:16:11.903Z,34.60
2022-08-03T17:19:02.121Z,34.30
2022-08-03T17:21:56.869Z,34.80
2022-08-03T17:24:50.892Z,34.90
2022-08-03T17:28:50.235Z,35.00
2022-08-03T17:31:03.554Z,34.80
2022-08-03T17:34:09.744Z,35.00
2022-08-03T17:37:06.210Z,34.70
2022-08-03T17:39:59.196Z,34.80
2022-08-03T17:42:50.536Z,34.80
2022-08-03T17:45:52.434Z,34.40
2022-08-03T17:48:42.301Z,34.30
2022-08-03T17:51:34.449Z,34.10
2022-08-03T17:55:55.778Z,33.90
2022-08-03T17:58:05.279Z,33.80
2022-08-03T18:01:59.691Z,33.60
2022-08-03T18:04:30.323Z,33.50
2022-08-03T18:07:19.184Z,33.30
2022-08-03T18:10:11.244Z,33.10
2022-08-03T18:13:10.524Z,33.00
2022-08-03T18:16:02.368Z,32.80
2022-08-03T18:18:54.789Z,32.70
2022-08-03T18:22:02.983Z,32.80
2022-08-03T18:24:50.981Z,32.60
2022-08-03T18:27:48.060Z,32.50
2022-08-03T18:30:39.757Z,32.20
2022-08-03T18:34:16.483Z,32.10
2022-08-03T18:36:50.372Z,31.90
2022-08-03T18:39:49.917Z,31.80
2022-08-03T18:42:39.608Z,31.60
2022-08-03T18:45:57.563Z,31.40
2022-08-03T18:48:50.194Z,31.30
2022-08-03T18:51:43.194Z,31.20
2022-08-03T18:54:46.419Z,31.00
2022-08-03T18:57:50.366Z,31.00
2022-08-03T19:00:54.658Z,30.80
2022-08-03T19:03:48.120Z,30.70
2022-08-03T19:06:39.675Z,30.50
2022-08-03T19:09:37.331Z,30.50
2022-08-03T19:12:37.348Z,30.40
2022-08-03T19:15:36.468Z,30.30
2022-08-03T19:18:32.429Z,30.10
2022-08-03T19:21:18.922Z,30.00
2022-08-03T19:24:10.149Z,29.90
2022-08-03T19:26:57.485Z,29.80
2022-08-03T19:29:59.022Z,29.70
2022-08-03T19:32:48.264Z,29.60
2022-08-03T19:35:55.532Z,29.60
2022-08-03T19:38:44.970Z,29.50
2022-08-03T19:41:41.641Z,29.40
2022-08-03T19:44:32.153Z,29.30
2022-08-03T19:47:27.263Z,29.30
2022-08-03T19:50:16.113Z,29.20
2022-08-03T19:53:07.528Z,29.00
2022-08-03T19:56:00.481Z,29.00
2022-08-03T19:58:47.293Z,28.90
2022-08-03T20:01:50.232Z,28.90
2022-08-03T20:04:38.885Z,28.80
2022-08-03T20:07:26.172Z,28.70
2022-08-03T20:10:15.407Z,28.60
2022-08-03T20:13:02.729Z,28.60
2022-08-03T20:15:53.471Z,28.50
2022-08-03T20:18:40.136Z,28.40
2022-08-03T20:21:32.043Z,28.40
2022-08-03T20:24:24.376Z,28.30
2022-08-03T20:27:19.085Z,28.20
2022-08-03T20:30:08.068Z,28.10
2022-08-03T20:32:54.522Z,28.00
2022-08-03T20:35:45.740Z,28.00
2022-08-03T20:38:32.612Z,28.00
2022-08-03T20:41:30.812Z,27.90
2022-08-03T20:44:19.987Z,27.80
2022-08-03T20:47:12.961Z,27.80
2022-08-03T20:50:12.073Z,27.70
2022-08-03T20:52:59.018Z,27.60
2022-08-03T20:56:02.347Z,27.50
2022-08-03T20:58:50.973Z,27.50
2022-08-03T21:01:39.324Z,27.50
2022-08-03T21:04:26.031Z,27.40
2022-08-03T21:07:19.790Z,27.30
2022-08-03T21:10:12.838Z,27.20
2022-08-03T21:13:15.971Z,27.30
2022-08-03T21:16:13.742Z,27.20
2022-08-03T21:19:04.804Z,27.20
2022-08-03T21:21:51.806Z,27.10
2022-08-03T21:24:41.679Z,27.00
2022-08-03T21:27:32.131Z,27.00
2022-08-03T21:30:19.212Z,27.00
2022-08-03T21:33:06.803Z,26.90
2022-08-03T21:35:55.079Z,26.90
2022-08-03T21:38:43.870Z,26.80
2022-08-03T21:41:34.562Z,26.70
2022-08-03T21:44:29.086Z,26.60
2022-08-03T21:47:16.628Z,26.60
2022-08-03T21:50:09.525Z,26.60
2022-08-03T21:52:59.054Z,26.60
2022-08-03T21:55:51.579Z,26.40
2022-08-03T21:58:51.109Z,26.50
2022-08-03T22:01:42.702Z,26.40
2022-08-03T22:04:38.060Z,26.30
2022-08-03T22:07:38.818Z,26.30
2022-08-03T22:10:28.825Z,26.20
2022-08-03T22:13:21.935Z,26.20
2022-08-03T22:16:24.586Z,26.20
2022-08-03T22:19:12.160Z,26.10
2022-08-03T22:22:00.060Z,25.90
2022-08-03T22:24:48.711Z,25.90
2022-08-03T22:27:40.225Z,25.90
2022-08-03T22:30:26.888Z,25.70
2022-08-03T22:33:15.606Z,25.70
2022-08-03T22:36:05.037Z,25.70
2022-08-03T22:38:53.011Z,25.60
2022-08-03T22:41:39.880Z,25.60
2022-08-03T22:44:28.466Z,25.70
2022-08-03T22:47:15.373Z,25.70
2022-08-03T22:50:33.499Z,25.60
2022-08-03T22:53:19.437Z,25.60
2022-08-03T22:56:06.440Z,25.50
2022-08-03T22:58:52.759Z,25.30
2022-08-03T23:01:44.492Z,25.20
2022-08-03T23:04:33.964Z,25.30
2022-08-03T23:07:30.628Z,25.30
2022-08-03T23:10:17.620Z,25.30
2022-08-03T23:13:04.307Z,25.30
2022-08-03T23:15:55.023Z,25.30
2022-08-03T23:18:46.085Z,25.20
2022-08-03T23:21:53.759Z,25.20
2022-08-03T23:24:40.826Z,25.00
2022-08-03T23:27:28.708Z,25.10
2022-08-03T23:30:15.216Z,25.00
2022-08-03T23:33:05.124Z,24.90
2022-08-03T23:36:20.046Z,24.90
2022-08-03T23:39:06.801Z,24.90
2022-08-03T23:41:54.665Z,24.90
2022-08-03T23:44:44.511Z,24.80
2022-08-03T23:47:46.879Z,24.70
2022-08-03T23:50:44.456Z,24.60
2022-08-03T23:53:45.597Z,24.70
2022-08-03T23:56:43.565Z,24.70
2022-08-03T23:59:43.312Z,24.70
